Time;durP1;ratioP1;P1;durP2;ratioP2;P2;SDS_P1;SDS_P2;PMS_P1;PMS_P2;Temp;Humidity;BMP_temperature;BMP_pressure;BME280_temperature;BME280_humidity;BME280_pressure;Samples;Min_cycle;Max_cycle;Signal;HPM_P1;HPM_P2
2023/03/27 00:00:46;;;;;;;5.18;1.10;;;4.40;99.90;;;;;;5055815;28;20442;-56
2023/03/27 00:03:13;;;;;;;6.35;1.23;;;4.40;99.90;;;;;;5053639;28;20124;-56
2023/03/27 00:05:40;;;;;;;4.20;1.10;;;4.40;99.90;;;;;;5051428;28;20052;-57
2023/03/27 00:08:09;;;;;;;6.20;1.00;;;4.40;99.90;;;;;;5063119;28;20105;-57
2023/03/27 00:10:36;;;;;;;6.95;1.25;;;4.40;99.90;;;;;;5052129;28;20041;-56
2023/03/27 00:13:04;;;;;;;13.00;1.85;;;4.40;99.90;;;;;;5057402;28;20167;-57
2023/03/27 00:15:30;;;;;;;7.38;1.48;;;4.40;99.90;;;;;;5060962;28;20037;-57
2023/03/27 00:18:03;;;;;;;9.82;1.60;;;4.40;99.90;;;;;;5052723;28;20040;-56
2023/03/27 00:20:36;;;;;;;8.45;1.88;;;4.40;99.90;;;;;;5054801;28;20116;-56
2023/03/27 00:23:02;;;;;;;9.18;1.30;;;4.40;99.90;;;;;;5058471;28;20040;-55
2023/03/27 00:25:29;;;;;;;18.88;3.35;;;4.30;99.90;;;;;;5057248;28;20088;-55
2023/03/27 00:27:55;;;;;;;5.40;1.27;;;4.30;99.90;;;;;;5048967;28;20267;-57
2023/03/27 00:30:25;;;;;;;5.15;1.00;;;4.30;99.90;;;;;;5062307;28;20059;-56
2023/03/27 00:32:54;;;;;;;13.93;2.45;;;4.30;99.90;;;;;;5053082;28;20142;-57
2023/03/27 00:35:20;;;;;;;10.25;1.67;;;4.30;99.90;;;;;;5058463;28;20516;-56
2023/03/27 00:37:46;;;;;;;7.70;1.20;;;4.30;99.90;;;;;;5056519;28;20120;-56
2023/03/27 00:40:14;;;;;;;8.77;1.50;;;4.30;99.90;;;;;;5059160;28;20116;-57
2023/03/27 00:42:40;;;;;;;16.67;2.97;;;4.30;99.90;;;;;;5064316;28;20052;-57
2023/03/27 00:45:13;;;;;;;8.50;1.30;;;4.30;99.90;;;;;;5057382;28;20045;-55
2023/03/27 00:47:39;;;;;;;7.35;1.00;;;4.20;99.90;;;;;;5058985;28;20412;-56
2023/03/27 00:50:11;;;;;;;15.85;2.55;;;4.20;99.90;;;;;;5062749;28;20055;-55
2023/03/27 00:52:41;;;;;;;8.07;1.40;;;4.20;99.90;;;;;;5052109;28;20047;-56
2023/03/27 00:55:13;;;;;;;6.15;1.27;;;4.20;99.90;;;;;;5059121;28;20043;-56
2023/03/27 00:57:41;;;;;;;9.65;1.52;;;4.20;99.90;;;;;;5059473;28;20063;-57
2023/03/27 01:00:12;;;;;;;9.82;1.85;;;4.20;99.90;;;;;;5044239;28;20037;-56
2023/03/27 01:02:39;;;;;;;12.77;1.95;;;4.20;99.90;;;;;;5057626;28;20036;-55
2023/03/27 01:05:08;;;;;;;7.68;1.92;;;4.20;99.90;;;;;;5057842;28;20099;-56
2023/03/27 01:07:35;;;;;;;9.38;1.67;;;4.20;99.90;;;;;;5050413;28;20033;-58
2023/03/27 01:10:06;;;;;;;10.18;2.28;;;4.10;99.90;;;;;;5061695;28;20115;-56
2023/03/27 01:13:01;;;;;;;8.65;1.40;;;4.10;99.90;;;;;;5052436;28;20079;-57
2023/03/27 01:15:43;;;;;;;12.13;1.90;;;4.10;99.90;;;;;;5044364;28;20076;-57
2023/03/27 01:18:32;;;;;;;12.10;1.77;;;4.10;99.90;;;;;;5059317;28;20076;-56
2023/03/27 01:21:28;;;;;;;13.25;1.60;;;4.10;99.90;;;;;;5064196;28;20397;-56
2023/03/27 01:24:13;;;;;;;12.68;1.55;;;4.00;99.90;;;;;;5074058;28;20040;-56
2023/03/27 01:26:57;;;;;;;19.85;3.22;;;4.00;99.90;;;;;;5061004;28;20044;-57
2023/03/27 01:29:47;;;;;;;13.88;1.70;;;4.00;99.90;;;;;;5055845;28;20067;-57
2023/03/27 01:32:25;;;;;;;12.73;1.48;;;4.00;99.90;;;;;;5063781;28;20053;-55
2023/03/27 01:35:18;;;;;;;10.68;2.20;;;3.90;99.90;;;;;;5056605;28;20047;-57
2023/03/27 01:38:10;;;;;;;8.63;1.50;;;3.90;99.90;;;;;;5055302;28;20071;-57
2023/03/27 01:41:03;;;;;;;10.88;2.25;;;3.90;99.90;;;;;;5057614;28;20032;-58
2023/03/27 01:43:35;;;;;;;7.82;1.60;;;3.90;99.90;;;;;;5049311;28;20041;-56
2023/03/27 01:46:30;;;;;;;14.38;3.35;;;3.90;99.90;;;;;;5049756;28;20033;-57
2023/03/27 01:49:14;;;;;;;8.90;1.60;;;3.90;99.90;;;;;;5063373;28;20131;-55
2023/03/27 01:51:47;;;;;;;7.28;1.40;;;4.00;99.90;;;;;;5053716;28;20079;-56
2023/03/27 01:54:16;;;;;;;8.55;1.23;;;4.00;99.90;;;;;;5060486;28;20032;-57
2023/03/27 01:56:53;;;;;;;9.57;1.75;;;4.00;99.90;;;;;;5061342;28;20415;-57
2023/03/27 01:59:22;;;;;;;21.20;2.65;;;4.10;99.90;;;;;;5059394;28;20056;-58
2023/03/27 02:01:59;;;;;;;6.88;1.50;;;4.10;99.90;;;;;;5056729;28;20044;-58
2023/03/27 02:04:35;;;;;;;7.30;1.95;;;4.10;99.90;;;;;;5063142;28;20113;-56
2023/03/27 02:07:09;;;;;;;10.23;2.13;;;4.10;99.90;;;;;;5057341;28;20215;-58
2023/03/27 02:09:48;;;;;;;8.35;1.67;;;4.10;99.90;;;;;;5058799;28;20335;-57
2023/03/27 02:12:29;;;;;;;8.90;1.38;;;4.20;99.90;;;;;;5057698;28;20464;-58
2023/03/27 02:15:10;;;;;;;9.80;1.63;;;4.20;99.90;;;;;;5070686;28;20041;-56
2023/03/27 02:17:43;;;;;;;6.97;1.27;;;4.30;99.90;;;;;;5058532;28;20036;-55
2023/03/27 02:20:15;;;;;;;17.15;2.72;;;4.30;99.90;;;;;;5053753;28;20511;-55
2023/03/27 02:22:47;;;;;;;9.27;1.50;;;4.30;99.90;;;;;;5061649;28;20052;-54
2023/03/27 02:25:34;;;;;;;9.73;1.20;;;4.30;99.90;;;;;;5056900;28;20037;-56
2023/03/27 02:28:12;;;;;;;4.68;1.20;;;4.20;99.90;;;;;;5058308;28;20392;-56
2023/03/27 02:30:40;;;;;;;5.25;1.42;;;4.20;99.90;;;;;;5057792;28;20049;-57
2023/03/27 02:33:27;;;;;;;6.03;1.38;;;4.20;99.90;;;;;;5056849;28;20040;-58
2023/03/27 02:36:20;;;;;;;7.55;1.58;;;4.10;99.90;;;;;;5049611;28;20041;-56
2023/03/27 02:39:10;;;;;;;6.35;1.13;;;4.10;99.90;;;;;;5061170;28;20135;-55
2023/03/27 02:41:49;;;;;;;6.35;1.60;;;4.10;99.90;;;;;;5051842;28;20137;-56
2023/03/27 02:44:44;;;;;;;15.70;2.90;;;4.10;99.90;;;;;;5053891;28;20051;-56
2023/03/27 02:47:32;;;;;;;8.50;1.30;;;4.20;99.90;;;;;;5044528;28;20509;-57
2023/03/27 02:50:24;;;;;;;11.05;1.90;;;4.20;99.90;;;;;;5056065;28;20047;-57
2023/03/27 02:52:58;;;;;;;9.18;1.90;;;4.30;99.90;;;;;;5044039;28;20064;-58
2023/03/27 02:55:32;;;;;;;8.18;2.00;;;4.30;99.90;;;;;;5055106;28;20080;-58
2023/03/27 02:58:07;;;;;;;8.40;1.92;;;4.20;99.90;;;;;;5062022;28;20106;-56
2023/03/27 03:00:39;;;;;;;10.48;1.50;;;4.00;99.90;;;;;;5060378;28;20043;-58
2023/03/27 03:03:29;;;;;;;11.32;1.65;;;3.90;99.90;;;;;;5055102;28;20231;-57
2023/03/27 03:05:56;;;;;;;6.70;2.15;;;3.80;99.90;;;;;;5061290;28;20107;-57
2023/03/27 03:08:23;;;;;;;6.30;1.40;;;3.60;99.90;;;;;;5058090;28;20048;-58
2023/03/27 03:10:49;;;;;;;6.40;1.83;;;3.60;99.90;;;;;;5065219;28;20060;-58
2023/03/27 03:13:16;;;;;;;5.43;1.50;;;3.50;99.90;;;;;;5063095;28;20044;-57
2023/03/27 03:15:44;;;;;;;6.35;1.40;;;3.50;99.90;;;;;;5065129;28;20040;-57
2023/03/27 03:18:11;;;;;;;10.02;1.50;;;3.40;99.90;;;;;;5053449;28;20029;-58
2023/03/27 03:20:38;;;;;;;6.88;1.90;;;3.40;99.90;;;;;;5059657;28;20051;-56
2023/03/27 03:23:05;;;;;;;5.40;1.20;;;3.40;99.90;;;;;;5052919;28;20052;-58
2023/03/27 03:25:31;;;;;;;8.50;1.52;;;3.40;99.90;;;;;;5064457;28;20071;-57
2023/03/27 03:27:57;;;;;;;7.93;1.70;;;3.40;99.90;;;;;;5060290;28;20045;-57
2023/03/27 03:30:29;;;;;;;9.23;1.90;;;3.40;99.90;;;;;;5058949;28;20045;-57
2023/03/27 03:32:55;;;;;;;7.82;1.65;;;3.40;99.90;;;;;;5052357;28;20087;-57
2023/03/27 03:35:22;;;;;;;5.05;1.58;;;3.50;99.90;;;;;;5055368;28;20460;-57
2023/03/27 03:37:50;;;;;;;11.30;2.47;;;3.50;99.90;;;;;;5062351;28;20097;-57
2023/03/27 03:40:17;;;;;;;10.90;2.17;;;3.50;99.90;;;;;;5064173;28;20036;-57
2023/03/27 03:42:48;;;;;;;12.57;2.03;;;3.50;99.90;;;;;;5058221;28;20432;-58
2023/03/27 03:45:14;;;;;;;8.75;2.97;;;3.50;99.90;;;;;;5056011;28;20559;-57
2023/03/27 03:47:42;;;;;;;7.88;1.75;;;3.60;99.90;;;;;;5059290;28;20040;-57
2023/03/27 03:50:08;;;;;;;6.70;1.75;;;3.60;99.90;;;;;;5058863;28;20444;-57
2023/03/27 03:52:34;;;;;;;7.53;1.45;;;3.60;99.90;;;;;;5050273;28;20462;-56
2023/03/27 03:55:01;;;;;;;9.30;2.28;;;3.60;99.90;;;;;;5058633;28;20048;-58
2023/03/27 03:57:29;;;;;;;8.73;2.00;;;3.60;99.90;;;;;;5067348;28;20040;-57
2023/03/27 03:59:57;;;;;;;8.75;3.30;;;3.70;99.90;;;;;;5049728;28;20074;-57
2023/03/27 04:02:27;;;;;;;10.93;2.03;;;3.70;99.90;;;;;;5056551;28;20564;-58
2023/03/27 04:04:59;;;;;;;6.07;1.90;;;3.70;99.90;;;;;;5057457;28;20543;-57
2023/03/27 04:07:34;;;;;;;8.35;2.15;;;3.70;99.90;;;;;;5046533;28;20069;-57
2023/03/27 04:10:01;;;;;;;9.88;3.65;;;3.70;99.90;;;;;;5058973;28;20476;-57
2023/03/27 04:12:27;;;;;;;10.80;2.60;;;3.70;99.90;;;;;;5060071;28;20090;-57
2023/03/27 04:14:54;;;;;;;13.13;2.92;;;3.80;99.90;;;;;;5064524;28;20492;-54
2023/03/27 04:17:20;;;;;;;12.10;2.72;;;3.70;99.90;;;;;;5062781;28;20127;-57
2023/03/27 04:19:46;;;;;;;13.75;2.55;;;3.80;99.90;;;;;;5055289;28;20033;-58
2023/03/27 04:22:16;;;;;;;10.63;2.13;;;3.80;99.90;;;;;;5060967;28;20056;-56
2023/03/27 04:24:44;;;;;;;18.05;2.45;;;3.80;99.90;;;;;;5058041;28;20052;-56
2023/03/27 04:27:11;;;;;;;14.07;2.40;;;3.90;99.90;;;;;;5055241;28;20037;-59
2023/03/27 04:29:42;;;;;;;11.23;2.05;;;4.00;99.90;;;;;;5057852;28;20519;-60
2023/03/27 04:32:11;;;;;;;6.18;1.65;;;4.00;99.90;;;;;;5048539;28;20277;-61
2023/03/27 04:34:39;;;;;;;8.73;1.92;;;4.00;99.90;;;;;;5061547;28;20029;-60
2023/03/27 04:37:05;;;;;;;6.60;2.05;;;4.00;99.90;;;;;;5061567;28;20072;-60
2023/03/27 04:39:35;;;;;;;6.53;1.70;;;4.00;99.90;;;;;;5058554;28;20059;-60
2023/03/27 04:42:01;;;;;;;9.40;1.73;;;4.10;99.90;;;;;;5051800;28;20449;-60
2023/03/27 04:44:27;;;;;;;7.20;1.55;;;4.00;99.90;;;;;;5050859;28;20057;-56
2023/03/27 04:46:53;;;;;;;11.98;3.05;;;4.10;99.90;;;;;;5057700;28;20074;-59
2023/03/27 04:49:19;;;;;;;5.18;1.42;;;4.10;99.90;;;;;;5057967;28;20052;-59
2023/03/27 04:51:45;;;;;;;8.57;2.05;;;4.00;99.90;;;;;;5052592;28;20044;-60
2023/03/27 04:54:11;;;;;;;7.97;1.80;;;4.00;99.90;;;;;;5055972;28;20438;-57
2023/03/27 04:56:37;;;;;;;3.58;1.35;;;4.00;99.90;;;;;;5063630;28;20040;-60
2023/03/27 04:59:03;;;;;;;11.23;2.55;;;3.90;99.90;;;;;;5058086;28;20094;-61
2023/03/27 05:01:29;;;;;;;11.80;1.58;;;3.90;99.90;;;;;;5056445;28;20087;-60
2023/03/27 05:03:56;;;;;;;12.80;2.10;;;3.90;99.90;;;;;;5055154;28;20073;-59
2023/03/27 05:06:22;;;;;;;9.93;2.38;;;3.80;99.90;;;;;;5058810;28;20064;-62
2023/03/27 05:08:49;;;;;;;9.00;1.30;;;3.80;99.90;;;;;;5062114;28;20044;-61
2023/03/27 05:11:15;;;;;;;12.02;2.03;;;3.80;99.90;;;;;;5054504;28;20132;-60
2023/03/27 05:13:40;;;;;;;7.93;1.45;;;3.80;99.90;;;;;;5061513;28;20128;-56
2023/03/27 05:16:08;;;;;;;6.40;1.42;;;3.80;99.90;;;;;;5060170;28;20040;-60
2023/03/27 05:18:37;;;;;;;9.27;1.50;;;3.80;99.90;;;;;;5055513;28;20076;-58
2023/03/27 05:21:04;;;;;;;6.03;1.55;;;3.80;99.90;;;;;;5061282;28;20070;-58
2023/03/27 05:23:29;;;;;;;6.90;2.15;;;3.80;99.90;;;;;;5054644;28;20043;-61
2023/03/27 05:25:55;;;;;;;9.02;1.58;;;3.70;99.90;;;;;;5058168;28;20025;-60
2023/03/27 05:28:22;;;;;;;9.73;3.60;;;3.70;99.90;;;;;;5053832;28;20040;-61
2023/03/27 05:30:48;;;;;;;9.80;1.33;;;3.70;99.90;;;;;;5055416;28;20045;-60
2023/03/27 05:33:16;;;;;;;9.98;2.65;;;3.70;99.90;;;;;;5051685;28;20365;-60
2023/03/27 05:35:45;;;;;;;7.57;1.30;;;3.70;99.90;;;;;;5055367;28;20400;-58
2023/03/27 05:38:11;;;;;;;6.38;1.13;;;3.70;99.90;;;;;;5056815;28;20071;-59
2023/03/27 05:40:38;;;;;;;7.90;1.40;;;3.70;99.90;;;;;;5054778;28;20048;-60
2023/03/27 05:43:04;;;;;;;11.13;3.08;;;3.70;99.90;;;;;;5030740;28;20040;-60
2023/03/27 05:45:31;;;;;;;8.65;1.63;;;3.80;99.90;;;;;;5047595;28;20032;-61
2023/03/27 05:47:58;;;;;;;6.78;2.03;;;3.80;99.90;;;;;;5053084;28;20111;-60
2023/03/27 05:50:27;;;;;;;15.60;1.45;;;3.80;99.90;;;;;;5059148;28;20041;-58
2023/03/27 05:52:55;;;;;;;13.75;2.35;;;3.80;99.90;;;;;;5059942;28;20479;-60
2023/03/27 05:55:21;;;;;;;7.63;1.02;;;3.80;99.90;;;;;;5061648;28;20064;-60
2023/03/27 05:57:46;;;;;;;7.78;1.30;;;3.80;99.90;;;;;;5059807;28;20075;-60
2023/03/27 06:00:15;;;;;;;8.00;1.33;;;3.80;99.90;;;;;;5059080;28;20369;-60
2023/03/27 06:02:42;;;;;;;9.23;1.88;;;3.80;99.90;;;;;;5055577;28;20044;-59
2023/03/27 06:05:15;;;;;;;8.05;1.98;;;3.80;99.90;;;;;;5058255;28;20045;-60
2023/03/27 06:07:42;;;;;;;8.40;1.65;;;3.90;99.90;;;;;;5059293;28;20044;-57
2023/03/27 06:10:10;;;;;;;9.77;1.88;;;3.90;99.90;;;;;;5057987;28;20414;-61
2023/03/27 06:12:37;;;;;;;8.30;1.40;;;4.00;99.90;;;;;;5052273;28;20436;-60
2023/03/27 06:15:07;;;;;;;5.88;1.45;;;3.90;99.90;;;;;;5058482;28;20040;-60
2023/03/27 06:17:34;;;;;;;8.75;1.55;;;4.00;99.90;;;;;;5056975;28;20133;-61
2023/03/27 06:20:01;;;;;;;6.95;1.80;;;4.00;99.90;;;;;;5058192;28;20033;-61
2023/03/27 06:22:27;;;;;;;8.48;1.67;;;4.00;99.90;;;;;;5057501;28;20098;-61
2023/03/27 06:24:53;;;;;;;8.82;1.30;;;4.10;99.90;;;;;;5054744;28;20036;-59
2023/03/27 06:27:20;;;;;;;8.30;1.70;;;4.10;99.90;;;;;;5053432;28;20048;-60
2023/03/27 06:29:46;;;;;;;13.75;2.05;;;4.10;99.90;;;;;;5057761;28;20074;-60
2023/03/27 06:32:12;;;;;;;10.00;1.90;;;4.20;99.90;;;;;;5057157;28;20126;-61
2023/03/27 06:34:38;;;;;;;12.50;1.80;;;4.30;99.90;;;;;;5064509;28;20046;-59
2023/03/27 06:37:04;;;;;;;9.25;1.33;;;4.30;99.90;;;;;;5044123;28;20033;-58
2023/03/27 06:39:30;;;;;;;9.30;2.00;;;4.40;99.90;;;;;;5054797;28;20037;-61
2023/03/27 06:41:56;;;;;;;8.25;2.00;;;4.50;99.90;;;;;;5056133;28;20076;-59
2023/03/27 06:44:22;;;;;;;10.95;2.25;;;4.50;99.90;;;;;;5060996;28;20426;-61
2023/03/27 06:46:47;;;;;;;8.95;1.55;;;4.50;99.90;;;;;;5062475;28;20056;-62
2023/03/27 06:49:14;;;;;;;9.38;1.50;;;4.60;99.90;;;;;;5051565;28;20033;-58
2023/03/27 06:51:40;;;;;;;5.72;1.23;;;4.70;99.90;;;;;;5051470;28;20080;-60
2023/03/27 06:54:06;;;;;;;14.93;1.42;;;4.70;99.90;;;;;;5061632;28;20126;-60
2023/03/27 06:56:32;;;;;;;8.65;1.60;;;4.80;99.90;;;;;;5061370;28;20060;-57
2023/03/27 06:58:57;;;;;;;8.75;1.60;;;4.90;99.90;;;;;;5056614;28;20068;-58
2023/03/27 07:01:23;;;;;;;7.95;1.23;;;4.90;99.90;;;;;;5056770;28;20040;-60
2023/03/27 07:03:49;;;;;;;7.65;1.45;;;5.00;99.90;;;;;;5056838;28;20048;-60
2023/03/27 07:06:15;;;;;;;12.65;1.90;;;5.10;99.90;;;;;;5064588;28;20120;-60
2023/03/27 07:08:41;;;;;;;7.72;1.48;;;5.30;99.90;;;;;;5054947;28;20410;-60
2023/03/27 07:11:07;;;;;;;7.03;1.27;;;5.40;99.90;;;;;;5055239;28;22497;-60
2023/03/27 07:13:33;;;;;;;9.80;1.30;;;5.30;99.90;;;;;;5058858;28;20041;-62
2023/03/27 07:15:58;;;;;;;6.85;1.40;;;5.20;99.90;;;;;;5052436;28;20124;-59
2023/03/27 07:18:24;;;;;;;9.57;1.80;;;5.10;99.90;;;;;;5059225;28;20111;-61
2023/03/27 07:20:50;;;;;;;10.80;1.95;;;4.70;99.90;;;;;;5056195;28;20059;-60
2023/03/27 07:23:16;;;;;;;6.40;1.00;;;4.90;99.90;;;;;;5060751;28;20090;-60
2023/03/27 07:25:41;;;;;;;3.60;1.10;;;5.00;99.90;;;;;;5036982;28;20585;-60
2023/03/27 07:28:15;;;;;;;5.25;1.40;;;5.00;99.90;;;;;;5052111;28;20041;-59
2023/03/27 07:30:41;;;;;;;5.15;1.05;;;5.10;99.90;;;;;;5054775;28;20395;-57
2023/03/27 07:33:08;;;;;;;5.70;1.80;;;5.20;99.90;;;;;;5044551;28;20555;-57
2023/03/27 07:35:44;;;;;;;3.58;1.45;;;5.30;99.90;;;;;;5055630;28;20098;-60
2023/03/27 07:38:10;;;;;;;6.63;1.60;;;5.20;99.90;;;;;;5062769;28;20040;-62
2023/03/27 07:40:37;;;;;;;6.57;1.30;;;5.10;99.90;;;;;;5059839;28;20066;-62
2023/03/27 07:43:05;;;;;;;11.57;1.60;;;5.10;99.90;;;;;;5063647;28;20041;-60
2023/03/27 07:45:33;;;;;;;10.68;1.30;;;5.10;99.90;;;;;;5062115;28;20056;-58
2023/03/27 07:48:14;;;;;;;4.50;1.13;;;5.00;99.90;;;;;;5057611;28;20484;-58
2023/03/27 07:50:41;;;;;;;13.45;2.65;;;4.90;99.90;;;;;;5053778;28;20423;-63
2023/03/27 07:53:06;;;;;;;9.45;1.77;;;4.80;99.90;;;;;;5051473;28;20313;-59
2023/03/27 07:55:35;;;;;;;9.40;1.48;;;4.80;99.90;;;;;;5059548;28;20039;-59
2023/03/27 07:58:01;;;;;;;6.32;1.40;;;5.00;99.90;;;;;;5059742;28;20514;-59
2023/03/27 08:00:28;;;;;;;9.60;1.50;;;5.30;99.90;;;;;;5061327;28;20037;-59
2023/03/27 08:03:07;;;;;;;13.45;2.08;;;5.50;99.90;;;;;;5055324;28;20111;-60
2023/03/27 08:05:33;;;;;;;10.00;1.70;;;5.60;99.90;;;;;;5056216;28;20520;-58
2023/03/27 08:07:59;;;;;;;5.05;1.52;;;5.90;99.90;;;;;;5059060;28;20040;-59
2023/03/27 08:10:24;;;;;;;7.15;1.92;;;6.10;99.90;;;;;;5064466;28;20044;-57
2023/03/27 08:12:50;;;;;;;12.80;1.95;;;6.40;99.90;;;;;;5055594;28;20536;-60
2023/03/27 08:15:17;;;;;;;7.30;1.70;;;6.50;99.90;;;;;;5058041;28;20036;-60
2023/03/27 08:17:43;;;;;;;4.10;1.10;;;5.50;99.90;;;;;;5052186;28;20052;-59
2023/03/27 08:20:13;;;;;;;4.97;1.13;;;4.70;99.90;;;;;;5064908;28;20484;-57
2023/03/27 08:22:40;;;;;;;2.15;0.85;;;4.20;99.90;;;;;;5058058;28;20116;-57
2023/03/27 08:25:09;;;;;;;3.22;0.60;;;3.80;99.90;;;;;;5041380;28;20643;-59
2023/03/27 08:27:35;;;;;;;2.90;0.60;;;3.70;99.90;;;;;;5054093;28;20037;-60
2023/03/27 08:30:02;;;;;;;4.32;1.05;;;3.60;99.90;;;;;;5050080;28;20049;-57
2023/03/27 08:32:28;;;;;;;4.45;0.80;;;3.60;99.90;;;;;;5057487;28;20040;-61
2023/03/27 08:34:54;;;;;;;2.13;0.75;;;3.70;99.90;;;;;;5055443;28;20550;-59
2023/03/27 08:37:20;;;;;;;2.50;0.60;;;3.80;99.90;;;;;;5060061;28;20068;-57
2023/03/27 08:39:46;;;;;;;5.65;1.00;;;4.00;99.90;;;;;;5043802;28;20421;-60
2023/03/27 08:42:20;;;;;;;4.38;0.90;;;4.20;99.90;;;;;;5060070;28;20048;-59
2023/03/27 08:44:47;;;;;;;6.55;0.98;;;4.40;99.90;;;;;;5059016;28;20071;-61
2023/03/27 08:47:32;;;;;;;3.38;0.68;;;4.60;99.90;;;;;;5057264;28;20048;-58
2023/03/27 08:49:59;;;;;;;8.48;3.08;;;4.80;99.90;;;;;;5062718;28;20048;-57
2023/03/27 08:52:28;;;;;;;4.15;0.85;;;5.00;99.90;;;;;;5047537;28;20041;-56
2023/03/27 08:55:13;;;;;;;6.18;1.00;;;5.30;99.90;;;;;;5039035;28;20052;-59
2023/03/27 08:57:39;;;;;;;8.02;1.27;;;5.40;99.90;;;;;;5061172;28;20033;-57
2023/03/27 09:00:13;;;;;;;8.57;2.20;;;5.60;99.90;;;;;;5054702;28;20131;-56
2023/03/27 09:03:00;;;;;;;7.30;1.15;;;5.70;99.90;;;;;;5056141;28;20123;-59
2023/03/27 09:05:41;;;;;;;7.93;1.35;;;5.90;99.90;;;;;;5066696;28;20040;-58
2023/03/27 09:08:38;;;;;;;6.63;1.30;;;6.00;99.90;;;;;;5054489;28;20036;-59
2023/03/27 09:11:24;;;;;;;7.85;1.27;;;6.10;99.90;;;;;;5058760;28;20049;-59
2023/03/27 09:13:51;;;;;;;8.95;1.45;;;5.90;99.90;;;;;;5064345;28;20514;-60
2023/03/27 09:16:24;;;;;;;6.32;1.13;;;6.30;99.90;;;;;;5058814;28;20896;-62
2023/03/27 09:18:52;;;;;;;5.97;1.35;;;6.10;99.90;;;;;;5053015;28;20029;-57
2023/03/27 09:21:22;;;;;;;7.68;1.27;;;6.00;99.90;;;;;;5053314;28;20040;-58
2023/03/27 09:23:49;;;;;;;7.90;1.35;;;6.30;99.90;;;;;;5049150;28;20040;-58
2023/03/27 09:26:21;;;;;;;7.20;1.40;;;6.60;99.90;;;;;;5056359;28;20108;-60
2023/03/27 09:28:56;;;;;;;5.20;1.55;;;6.60;99.90;;;;;;5052536;28;20037;-64
2023/03/27 09:31:41;;;;;;;7.07;1.58;;;6.50;99.90;;;;;;5053958;28;20072;-60
2023/03/27 09:34:12;;;;;;;12.50;1.88;;;6.40;99.90;;;;;;5058168;28;20484;-60
2023/03/27 09:36:39;;;;;;;9.30;1.70;;;6.40;99.90;;;;;;5056764;28;20036;-60
2023/03/27 09:39:07;;;;;;;11.85;1.88;;;6.50;99.90;;;;;;5055933;28;20044;-57
2023/03/27 09:42:03;;;;;;;9.00;1.40;;;6.50;99.90;;;;;;5056742;28;20040;-60
2023/03/27 09:44:34;;;;;;;8.05;1.38;;;6.70;99.90;;;;;;5070541;28;20048;-61
2023/03/27 09:47:33;;;;;;;7.65;1.40;;;6.70;99.90;;;;;;5061440;28;20855;-59
2023/03/27 09:50:32;;;;;;;9.52;1.38;;;6.80;99.90;;;;;;5054024;28;20033;-61
2023/03/27 09:53:22;;;;;;;6.95;1.65;;;7.00;99.90;;;;;;5055433;28;20439;-59
2023/03/27 09:55:51;;;;;;;10.40;1.90;;;7.10;99.90;;;;;;5055714;28;20047;-62
2023/03/27 09:58:30;;;;;;;4.30;1.00;;;7.00;99.90;;;;;;5054443;28;20492;-61
2023/03/27 10:01:19;;;;;;;7.43;1.13;;;7.00;99.90;;;;;;5048432;28;20045;-57
2023/03/27 10:03:47;;;;;;;14.90;1.88;;;7.10;99.90;;;;;;5053139;28;20407;-56
2023/03/27 10:06:25;;;;;;;14.40;3.38;;;7.10;99.90;;;;;;5056908;28;20530;-56
2023/03/27 10:08:52;;;;;;;10.57;2.40;;;7.20;99.90;;;;;;5049795;28;20093;-59
2023/03/27 10:11:26;;;;;;;10.35;1.60;;;7.30;99.90;;;;;;5052820;28;20051;-59
2023/03/27 10:13:54;;;;;;;8.43;1.45;;;6.90;99.90;;;;;;5053030;28;20045;-57
2023/03/27 10:16:21;;;;;;;4.43;1.00;;;6.90;99.90;;;;;;5057143;28;20495;-57
2023/03/27 10:18:51;;;;;;;4.70;1.13;;;6.80;99.90;;;;;;5052103;28;20039;-62
2023/03/27 10:21:32;;;;;;;7.03;1.27;;;7.00;99.90;;;;;;5056072;28;20037;-61
2023/03/27 10:24:01;;;;;;;6.57;1.52;;;7.20;99.90;;;;;;5055791;28;20090;-59
2023/03/27 10:26:29;;;;;;;11.63;2.30;;;7.50;99.90;;;;;;5056138;28;20040;-58
2023/03/27 10:29:00;;;;;;;7.82;1.20;;;7.60;99.90;;;;;;5052104;28;20507;-58
2023/03/27 10:31:37;;;;;;;6.10;1.02;;;7.50;99.90;;;;;;5055144;28;20127;-59
2023/03/27 10:34:05;;;;;;;6.68;0.93;;;7.40;99.80;;;;;;5056854;28;20063;-58
2023/03/27 10:36:33;;;;;;;6.00;1.08;;;7.70;99.90;;;;;;5063894;28;20075;-56
2023/03/27 10:39:23;;;;;;;9.65;1.20;;;7.90;99.90;;;;;;5051519;28;20048;-55
2023/03/27 10:41:49;;;;;;;4.57;0.85;;;7.30;99.90;;;;;;5051014;28;20037;-58
2023/03/27 10:44:19;;;;;;;9.50;1.50;;;6.70;99.90;;;;;;5057033;28;20698;-56
2023/03/27 10:46:45;;;;;;;6.82;1.00;;;6.40;99.90;;;;;;5049568;28;20090;-55
2023/03/27 10:49:24;;;;;;;6.97;1.95;;;6.60;99.90;;;;;;5053812;28;22677;-55
2023/03/27 10:52:21;;;;;;;4.22;1.25;;;6.90;99.90;;;;;;5054200;28;20091;-54
2023/03/27 10:55:01;;;;;;;6.90;1.17;;;7.20;99.90;;;;;;5053937;28;20061;-56
2023/03/27 10:57:36;;;;;;;3.97;0.65;;;7.50;99.90;;;;;;5060972;28;20127;-57
2023/03/27 11:00:31;;;;;;;5.40;1.60;;;7.90;99.90;;;;;;5061844;28;20044;-56
2023/03/27 11:03:25;;;;;;;10.93;1.23;;;8.00;99.90;;;;;;5050355;28;20512;-57
2023/03/27 11:05:53;;;;;;;4.35;1.10;;;8.10;99.90;;;;;;5053508;28;20511;-54
2023/03/27 11:08:52;;;;;;;9.50;1.60;;;8.10;99.00;;;;;;5046680;28;20071;-55
2023/03/27 11:11:28;;;;;;;6.68;1.13;;;8.10;98.40;;;;;;5064763;28;20059;-55
2023/03/27 11:14:00;;;;;;;9.82;1.48;;;8.20;98.70;;;;;;5046353;28;20082;-56
2023/03/27 11:16:40;;;;;;;9.80;1.50;;;8.10;97.90;;;;;;5061670;28;20092;-55
2023/03/27 11:19:09;;;;;;;5.70;1.52;;;8.20;98.90;;;;;;5059677;28;20036;-59
2023/03/27 11:21:57;;;;;;;8.75;1.70;;;8.00;99.80;;;;;;5059444;28;20048;-55
2023/03/27 11:24:46;;;;;;;8.23;1.42;;;7.20;99.90;;;;;;5058937;28;20608;-57
2023/03/27 11:27:30;;;;;;;11.23;1.38;;;7.00;99.90;;;;;;5054640;28;20216;-56
2023/03/27 11:29:59;;;;;;;11.98;1.73;;;7.10;99.90;;;;;;5055735;28;20033;-56
2023/03/27 11:32:36;;;;;;;7.88;1.17;;;7.10;99.90;;;;;;5053954;28;20044;-56
2023/03/27 11:35:12;;;;;;;8.93;1.50;;;6.90;99.90;;;;;;5065201;28;20048;-56
2023/03/27 11:37:47;;;;;;;9.23;1.70;;;7.10;99.90;;;;;;5056925;28;20442;-57
2023/03/27 11:40:20;;;;;;;9.85;1.48;;;7.40;99.90;;;;;;5057645;28;20608;-56
2023/03/27 11:42:46;;;;;;;7.43;1.20;;;7.60;99.90;;;;;;5064247;28;20048;-60
2023/03/27 11:45:21;;;;;;;7.60;1.02;;;7.90;99.60;;;;;;5055759;28;20068;-56
2023/03/27 11:48:22;;;;;;;8.30;1.65;;;8.20;99.10;;;;;;5052900;28;20691;-57
2023/03/27 11:51:10;;;;;;;4.72;1.02;;;8.30;97.70;;;;;;5062829;28;20386;-56
2023/03/27 11:54:06;;;;;;;5.82;1.02;;;8.20;96.50;;;;;;5055882;28;20095;-57
2023/03/27 11:56:53;;;;;;;6.07;1.05;;;8.10;95.10;;;;;;5053187;28;20123;-56
2023/03/27 11:59:36;;;;;;;7.68;2.08;;;7.90;94.30;;;;;;5056695;28;20056;-56
2023/03/27 12:02:34;;;;;;;6.87;1.13;;;7.80;95.40;;;;;;5062961;28;20127;-57
2023/03/27 12:05:15;;;;;;;7.53;1.45;;;8.10;95.90;;;;;;5057187;28;20121;-56
2023/03/27 12:07:45;;;;;;;7.15;1.60;;;8.20;96.80;;;;;;5075526;28;20053;-54
2023/03/27 12:10:35;;;;;;;8.32;1.70;;;8.40;97.00;;;;;;5052966;28;20048;-57
2023/03/27 12:13:27;;;;;;;10.02;1.52;;;8.30;97.10;;;;;;5056597;28;20037;-58
2023/03/27 12:16:10;;;;;;;11.55;2.42;;;8.30;97.40;;;;;;5055218;28;20037;-58
2023/03/27 12:18:58;;;;;;;9.02;1.60;;;8.50;96.90;;;;;;5052837;28;20041;-56
2023/03/27 12:21:28;;;;;;;7.28;1.60;;;8.50;97.20;;;;;;5059963;28;20446;-56
2023/03/27 12:24:12;;;;;;;8.43;1.63;;;8.50;97.90;;;;;;5067288;28;20102;-57
2023/03/27 12:26:38;;;;;;;;;;;8.20;97.30;;;;;;5058313;28;20115;-59
2023/03/27 12:29:06;;;;;;;12.30;1.90;;;8.20;97.80;;;;;;5057185;28;20465;-58
2023/03/27 12:31:56;;;;;;;13.63;2.25;;;8.10;97.40;;;;;;5058702;28;20502;-57
2023/03/27 12:34:25;;;;;;;7.15;1.70;;;8.50;99.90;;;;;;5059447;28;20547;-55
2023/03/27 12:36:52;;;;;;;11.13;1.58;;;8.00;99.70;;;;;;5056796;28;20057;-59
2023/03/27 12:39:23;;;;;;;10.38;1.90;;;7.70;99.90;;;;;;5051645;28;20484;-57
2023/03/27 12:41:49;;;;;;;6.60;1.52;;;7.40;99.90;;;;;;5055346;28;20045;-57
2023/03/27 12:44:20;;;;;;;9.88;1.73;;;7.00;99.90;;;;;;5056270;28;20045;-56
2023/03/27 12:47:22;;;;;;;10.93;1.88;;;6.90;99.90;;;;;;5050704;28;20033;-57
2023/03/27 12:49:59;;;;;;;8.88;1.80;;;7.20;99.90;;;;;;5061210;28;20044;-57
2023/03/27 12:52:26;;;;;;;8.43;2.08;;;7.50;99.90;;;;;;5050390;28;20045;-59
2023/03/27 12:55:29;;;;;;;10.73;2.10;;;7.50;99.90;;;;;;5053443;28;20044;-59
2023/03/27 12:57:56;;;;;;;17.98;3.15;;;7.70;99.90;;;;;;5059203;28;20029;-56
2023/03/27 13:00:25;;;;;;;11.93;2.38;;;8.00;99.90;;;;;;5059867;28;20041;-60
2023/03/27 13:03:03;;;;;;;5.93;1.10;;;8.50;99.90;;;;;;5055595;28;20047;-56
2023/03/27 13:05:35;;;;;;;6.45;1.52;;;9.10;99.90;;;;;;5059083;28;20069;-57
2023/03/27 13:08:13;;;;;;;9.52;1.60;;;9.20;99.50;;;;;;5059666;28;20047;-56
2023/03/27 13:10:56;;;;;;;6.22;1.20;;;9.20;99.00;;;;;;5063446;28;20037;-58
2023/03/27 13:13:28;;;;;;;9.57;1.65;;;9.20;97.40;;;;;;5057903;28;20040;-56
2023/03/27 13:15:53;;;;;;;7.72;2.33;;;9.20;96.30;;;;;;5059699;28;20041;-56
2023/03/27 13:18:59;;;;;;;10.15;1.92;;;8.80;97.60;;;;;;5052090;28;20513;-59
2023/03/27 13:21:40;;;;;;;9.88;1.77;;;8.30;99.30;;;;;;5052911;28;20045;-56
2023/03/27 13:24:20;;;;;;;6.50;1.33;;;8.10;99.90;;;;;;5059975;28;20040;-57